sensor_id;sensor_type;location;lat;lon;timestamp;P1;durP1;ratioP1;P2;durP2;ratioP2
33690;SDS011;20026;50.058;18.428;2022-08-26T00:00:49;46.10;;;22.55;;
33690;SDS011;20026;50.058;18.428;2022-08-26T00:03:15;44.80;;;22.15;;
33690;SDS011;20026;50.058;18.428;2022-08-26T00:05:42;64.47;;;42.15;;
33690;SDS011;20026;50.058;18.428;2022-08-26T00:08:09;49.38;;;23.42;;
33690;SDS011;20026;50.058;18.428;2022-08-26T00:10:36;41.85;;;24.85;;
33690;SDS011;20026;50.058;18.428;2022-08-26T00:13:02;42.42;;;22.67;;
33690;SDS011;20026;50.058;18.428;2022-08-26T00:15:28;38.03;;;17.70;;
33690;SDS011;20026;50.058;18.428;2022-08-26T00:17:54;32.72;;;17.08;;
33690;SDS011;20026;50.058;18.428;2022-08-26T00:20:23;42.00;;;16.45;;
33690;SDS011;20026;50.058;18.428;2022-08-26T00:22:49;27.83;;;16.42;;
33690;SDS011;20026;50.058;18.428;2022-08-26T00:25:15;35.50;;;17.15;;
33690;SDS011;20026;50.058;18.428;2022-08-26T00:27:41;41.42;;;17.73;;
33690;SDS011;20026;50.058;18.428;2022-08-26T00:30:09;34.50;;;17.70;;
33690;SDS011;20026;50.058;18.428;2022-08-26T00:32:35;38.13;;;18.55;;
33690;SDS011;20026;50.058;18.428;2022-08-26T00:35:01;38.70;;;18.23;;
33690;SDS011;20026;50.058;18.428;2022-08-26T00:37:28;42.88;;;18.95;;
33690;SDS011;20026;50.058;18.428;2022-08-26T00:39:54;33.00;;;17.45;;
33690;SDS011;20026;50.058;18.428;2022-08-26T00:42:20;37.90;;;17.60;;
33690;SDS011;20026;50.058;18.428;2022-08-26T00:44:45;35.92;;;17.25;;
33690;SDS011;20026;50.058;18.428;2022-08-26T00:47:21;37.28;;;17.45;;
33690;SDS011;20026;50.058;18.428;2022-08-26T00:49:48;33.25;;;18.15;;
33690;SDS011;20026;50.058;18.428;2022-08-26T00:52:16;31.25;;;17.73;;
33690;SDS011;20026;50.058;18.428;2022-08-26T00:54:45;35.47;;;16.42;;
33690;SDS011;20026;50.058;18.428;2022-08-26T00:57:15;34.25;;;17.98;;
33690;SDS011;20026;50.058;18.428;2022-08-26T00:59:42;33.25;;;16.77;;
33690;SDS011;20026;50.058;18.428;2022-08-26T01:02:09;31.20;;;17.45;;
33690;SDS011;20026;50.058;18.428;2022-08-26T01:04:35;35.58;;;18.10;;
33690;SDS011;20026;50.058;18.428;2022-08-26T01:07:02;31.25;;;17.33;;
33690;SDS011;20026;50.058;18.428;2022-08-26T01:09:29;24.55;;;16.98;;
33690;SDS011;20026;50.058;18.428;2022-08-26T01:11:56;31.23;;;16.83;;
33690;SDS011;20026;50.058;18.428;2022-08-26T01:14:23;30.42;;;17.65;;
33690;SDS011;20026;50.058;18.428;2022-08-26T01:16:51;35.95;;;17.50;;
33690;SDS011;20026;50.058;18.428;2022-08-26T01:21:45;34.97;;;17.75;;
33690;SDS011;20026;50.058;18.428;2022-08-26T01:24:12;32.13;;;17.20;;
33690;SDS011;20026;50.058;18.428;2022-08-26T01:26:39;28.15;;;16.80;;
33690;SDS011;20026;50.058;18.428;2022-08-26T01:29:07;32.63;;;16.85;;
33690;SDS011;20026;50.058;18.428;2022-08-26T01:31:35;34.33;;;17.90;;
33690;SDS011;20026;50.058;18.428;2022-08-26T01:34:04;30.23;;;17.45;;
33690;SDS011;20026;50.058;18.428;2022-08-26T01:36:31;39.10;;;18.23;;
33690;SDS011;20026;50.058;18.428;2022-08-26T01:38:57;30.15;;;16.30;;
33690;SDS011;20026;50.058;18.428;2022-08-26T01:41:23;27.17;;;16.73;;
33690;SDS011;20026;50.058;18.428;2022-08-26T01:43:50;33.15;;;18.65;;
33690;SDS011;20026;50.058;18.428;2022-08-26T01:46:17;30.20;;;17.95;;
33690;SDS011;20026;50.058;18.428;2022-08-26T01:48:44;34.25;;;17.73;;
33690;SDS011;20026;50.058;18.428;2022-08-26T01:51:10;40.63;;;19.05;;
33690;SDS011;20026;50.058;18.428;2022-08-26T01:53:37;28.73;;;17.70;;
33690;SDS011;20026;50.058;18.428;2022-08-26T01:56:03;26.50;;;16.88;;
33690;SDS011;20026;50.058;18.428;2022-08-26T01:58:34;36.50;;;19.00;;
33690;SDS011;20026;50.058;18.428;2022-08-26T02:01:01;39.40;;;19.92;;
33690;SDS011;20026;50.058;18.428;2022-08-26T02:03:28;32.95;;;19.73;;
33690;SDS011;20026;50.058;18.428;2022-08-26T02:05:55;36.95;;;20.55;;
33690;SDS011;20026;50.058;18.428;2022-08-26T02:08:24;37.97;;;20.75;;
33690;SDS011;20026;50.058;18.428;2022-08-26T02:10:51;34.77;;;18.03;;
33690;SDS011;20026;50.058;18.428;2022-08-26T02:13:17;34.60;;;18.73;;
33690;SDS011;20026;50.058;18.428;2022-08-26T02:15:43;34.45;;;18.92;;
33690;SDS011;20026;50.058;18.428;2022-08-26T02:18:09;34.08;;;19.30;;
33690;SDS011;20026;50.058;18.428;2022-08-26T02:20:36;31.85;;;18.65;;
33690;SDS011;20026;50.058;18.428;2022-08-26T02:23:02;37.50;;;19.13;;
33690;SDS011;20026;50.058;18.428;2022-08-26T02:25:30;29.45;;;19.15;;
33690;SDS011;20026;50.058;18.428;2022-08-26T02:27:57;32.45;;;19.08;;
33690;SDS011;20026;50.058;18.428;2022-08-26T02:30:25;33.10;;;19.77;;
33690;SDS011;20026;50.058;18.428;2022-08-26T02:32:52;34.63;;;18.98;;
33690;SDS011;20026;50.058;18.428;2022-08-26T02:35:19;37.08;;;18.92;;
33690;SDS011;20026;50.058;18.428;2022-08-26T02:37:46;36.50;;;19.35;;
33690;SDS011;20026;50.058;18.428;2022-08-26T02:40:12;31.05;;;19.30;;
33690;SDS011;20026;50.058;18.428;2022-08-26T02:42:38;37.15;;;20.42;;
33690;SDS011;20026;50.058;18.428;2022-08-26T02:45:05;36.90;;;21.60;;
33690;SDS011;20026;50.058;18.428;2022-08-26T02:47:31;35.80;;;22.27;;
33690;SDS011;20026;50.058;18.428;2022-08-26T02:49:57;48.75;;;21.92;;
33690;SDS011;20026;50.058;18.428;2022-08-26T02:52:23;33.42;;;22.48;;
33690;SDS011;20026;50.058;18.428;2022-08-26T02:54:49;34.83;;;21.98;;
33690;SDS011;20026;50.058;18.428;2022-08-26T02:57:16;38.78;;;22.23;;
33690;SDS011;20026;50.058;18.428;2022-08-26T02:59:42;36.60;;;22.05;;
33690;SDS011;20026;50.058;18.428;2022-08-26T03:02:08;44.92;;;21.92;;
33690;SDS011;20026;50.058;18.428;2022-08-26T03:04:35;39.88;;;21.00;;
33690;SDS011;20026;50.058;18.428;2022-08-26T03:07:02;35.30;;;21.02;;
33690;SDS011;20026;50.058;18.428;2022-08-26T03:09:28;43.85;;;21.65;;
33690;SDS011;20026;50.058;18.428;2022-08-26T03:11:54;39.58;;;20.52;;
33690;SDS011;20026;50.058;18.428;2022-08-26T03:14:20;34.58;;;19.50;;
33690;SDS011;20026;50.058;18.428;2022-08-26T03:16:48;34.72;;;19.25;;
33690;SDS011;20026;50.058;18.428;2022-08-26T03:19:16;32.25;;;18.38;;
33690;SDS011;20026;50.058;18.428;2022-08-26T03:21:42;32.55;;;18.73;;
33690;SDS011;20026;50.058;18.428;2022-08-26T03:24:11;34.88;;;18.90;;
33690;SDS011;20026;50.058;18.428;2022-08-26T03:26:37;33.50;;;19.00;;
33690;SDS011;20026;50.058;18.428;2022-08-26T03:29:03;39.63;;;21.90;;
33690;SDS011;20026;50.058;18.428;2022-08-26T03:31:48;37.97;;;20.65;;
33690;SDS011;20026;50.058;18.428;2022-08-26T03:34:14;39.20;;;21.30;;
33690;SDS011;20026;50.058;18.428;2022-08-26T03:36:42;35.65;;;21.80;;
33690;SDS011;20026;50.058;18.428;2022-08-26T03:39:09;39.80;;;21.73;;
33690;SDS011;20026;50.058;18.428;2022-08-26T03:41:35;47.17;;;23.25;;
33690;SDS011;20026;50.058;18.428;2022-08-26T03:44:02;38.42;;;21.15;;
33690;SDS011;20026;50.058;18.428;2022-08-26T03:46:29;37.25;;;21.00;;
33690;SDS011;20026;50.058;18.428;2022-08-26T03:48:56;36.03;;;21.63;;
33690;SDS011;20026;50.058;18.428;2022-08-26T03:51:22;46.28;;;23.75;;
33690;SDS011;20026;50.058;18.428;2022-08-26T03:53:48;45.42;;;23.10;;
33690;SDS011;20026;50.058;18.428;2022-08-26T03:56:14;33.55;;;21.45;;
33690;SDS011;20026;50.058;18.428;2022-08-26T03:58:40;39.95;;;23.92;;
33690;SDS011;20026;50.058;18.428;2022-08-26T04:01:08;40.20;;;23.05;;
33690;SDS011;20026;50.058;18.428;2022-08-26T04:03:34;44.88;;;23.30;;
33690;SDS011;20026;50.058;18.428;2022-08-26T04:06:18;37.50;;;24.33;;
33690;SDS011;20026;50.058;18.428;2022-08-26T04:08:44;38.50;;;22.83;;
33690;SDS011;20026;50.058;18.428;2022-08-26T04:11:15;37.80;;;23.10;;
33690;SDS011;20026;50.058;18.428;2022-08-26T04:13:42;42.03;;;22.38;;
33690;SDS011;20026;50.058;18.428;2022-08-26T04:16:08;39.40;;;23.42;;
33690;SDS011;20026;50.058;18.428;2022-08-26T04:18:34;43.63;;;25.98;;
33690;SDS011;20026;50.058;18.428;2022-08-26T04:21:02;42.20;;;25.25;;
33690;SDS011;20026;50.058;18.428;2022-08-26T04:23:28;42.83;;;25.33;;
33690;SDS011;20026;50.058;18.428;2022-08-26T04:25:54;43.13;;;25.27;;
33690;SDS011;20026;50.058;18.428;2022-08-26T04:28:20;35.80;;;24.58;;
33690;SDS011;20026;50.058;18.428;2022-08-26T04:30:46;40.00;;;24.05;;
33690;SDS011;20026;50.058;18.428;2022-08-26T04:33:13;39.42;;;24.30;;
33690;SDS011;20026;50.058;18.428;2022-08-26T04:35:39;41.72;;;22.50;;
33690;SDS011;20026;50.058;18.428;2022-08-26T04:38:05;39.67;;;24.20;;
33690;SDS011;20026;50.058;18.428;2022-08-26T04:40:31;43.28;;;24.30;;
33690;SDS011;20026;50.058;18.428;2022-08-26T04:42:57;41.42;;;23.17;;
33690;SDS011;20026;50.058;18.428;2022-08-26T04:45:23;35.88;;;22.70;;
33690;SDS011;20026;50.058;18.428;2022-08-26T04:47:51;38.38;;;22.05;;
33690;SDS011;20026;50.058;18.428;2022-08-26T04:50:17;37.78;;;22.17;;
33690;SDS011;20026;50.058;18.428;2022-08-26T04:52:44;35.90;;;21.42;;
33690;SDS011;20026;50.058;18.428;2022-08-26T04:55:10;37.22;;;20.10;;
33690;SDS011;20026;50.058;18.428;2022-08-26T04:57:36;36.20;;;19.50;;
33690;SDS011;20026;50.058;18.428;2022-08-26T05:00:03;32.15;;;18.42;;
33690;SDS011;20026;50.058;18.428;2022-08-26T05:02:30;37.20;;;18.30;;
33690;SDS011;20026;50.058;18.428;2022-08-26T05:04:55;35.60;;;19.75;;
33690;SDS011;20026;50.058;18.428;2022-08-26T05:07:22;31.55;;;17.55;;
33690;SDS011;20026;50.058;18.428;2022-08-26T05:09:48;35.67;;;17.00;;
33690;SDS011;20026;50.058;18.428;2022-08-26T05:12:14;33.53;;;15.52;;
33690;SDS011;20026;50.058;18.428;2022-08-26T05:14:40;27.13;;;15.05;;
33690;SDS011;20026;50.058;18.428;2022-08-26T05:17:06;23.42;;;14.38;;
33690;SDS011;20026;50.058;18.428;2022-08-26T05:19:32;24.52;;;12.77;;
33690;SDS011;20026;50.058;18.428;2022-08-26T05:21:58;26.35;;;13.95;;
33690;SDS011;20026;50.058;18.428;2022-08-26T05:24:24;28.40;;;14.48;;
33690;SDS011;20026;50.058;18.428;2022-08-26T05:26:50;23.55;;;13.55;;
33690;SDS011;20026;50.058;18.428;2022-08-26T05:29:16;26.15;;;13.27;;
33690;SDS011;20026;50.058;18.428;2022-08-26T05:31:42;23.88;;;13.60;;
33690;SDS011;20026;50.058;18.428;2022-08-26T05:34:08;30.25;;;15.57;;
33690;SDS011;20026;50.058;18.428;2022-08-26T05:36:35;25.33;;;14.20;;
33690;SDS011;20026;50.058;18.428;2022-08-26T05:39:02;26.17;;;16.98;;
33690;SDS011;20026;50.058;18.428;2022-08-26T05:41:32;26.38;;;13.02;;
33690;SDS011;20026;50.058;18.428;2022-08-26T05:43:59;24.15;;;11.70;;
33690;SDS011;20026;50.058;18.428;2022-08-26T05:46:26;28.60;;;10.25;;
33690;SDS011;20026;50.058;18.428;2022-08-26T05:48:52;26.73;;;10.85;;
33690;SDS011;20026;50.058;18.428;2022-08-26T05:51:20;26.45;;;10.75;;
33690;SDS011;20026;50.058;18.428;2022-08-26T05:53:46;22.83;;;10.50;;
33690;SDS011;20026;50.058;18.428;2022-08-26T05:56:12;25.65;;;10.65;;
33690;SDS011;20026;50.058;18.428;2022-08-26T05:58:40;27.35;;;10.05;;
33690;SDS011;20026;50.058;18.428;2022-08-26T06:01:08;19.67;;;9.00;;
33690;SDS011;20026;50.058;18.428;2022-08-26T06:03:35;23.50;;;9.93;;
33690;SDS011;20026;50.058;18.428;2022-08-26T06:06:06;20.95;;;10.27;;
33690;SDS011;20026;50.058;18.428;2022-08-26T06:08:32;18.45;;;9.45;;
33690;SDS011;20026;50.058;18.428;2022-08-26T06:10:59;24.98;;;9.88;;
33690;SDS011;20026;50.058;18.428;2022-08-26T06:13:26;23.23;;;10.50;;
33690;SDS011;20026;50.058;18.428;2022-08-26T06:15:53;19.77;;;9.70;;
33690;SDS011;20026;50.058;18.428;2022-08-26T06:18:22;20.70;;;9.50;;
33690;SDS011;20026;50.058;18.428;2022-08-26T06:20:48;19.97;;;9.27;;
33690;SDS011;20026;50.058;18.428;2022-08-26T06:23:15;25.77;;;10.50;;
33690;SDS011;20026;50.058;18.428;2022-08-26T06:26:01;20.92;;;9.57;;
33690;SDS011;20026;50.058;18.428;2022-08-26T06:28:27;21.25;;;9.50;;
33690;SDS011;20026;50.058;18.428;2022-08-26T06:30:53;26.70;;;9.55;;
33690;SDS011;20026;50.058;18.428;2022-08-26T06:33:19;22.70;;;9.40;;
33690;SDS011;20026;50.058;18.428;2022-08-26T06:35:45;21.98;;;9.57;;
33690;SDS011;20026;50.058;18.428;2022-08-26T06:38:12;20.02;;;10.77;;
33690;SDS011;20026;50.058;18.428;2022-08-26T06:40:48;23.60;;;10.38;;
33690;SDS011;20026;50.058;18.428;2022-08-26T06:43:19;24.38;;;9.35;;
33690;SDS011;20026;50.058;18.428;2022-08-26T06:45:45;19.92;;;9.40;;
33690;SDS011;20026;50.058;18.428;2022-08-26T06:48:12;31.92;;;9.63;;
33690;SDS011;20026;50.058;18.428;2022-08-26T06:50:39;23.38;;;8.77;;
33690;SDS011;20026;50.058;18.428;2022-08-26T06:53:05;23.38;;;8.50;;
33690;SDS011;20026;50.058;18.428;2022-08-26T06:55:32;26.50;;;8.32;;
33690;SDS011;20026;50.058;18.428;2022-08-26T06:57:58;20.75;;;8.52;;
33690;SDS011;20026;50.058;18.428;2022-08-26T07:00:24;17.02;;;7.88;;
33690;SDS011;20026;50.058;18.428;2022-08-26T07:02:50;21.75;;;8.07;;
33690;SDS011;20026;50.058;18.428;2022-08-26T07:05:16;19.92;;;8.13;;
33690;SDS011;20026;50.058;18.428;2022-08-26T07:07:42;20.80;;;7.78;;
33690;SDS011;20026;50.058;18.428;2022-08-26T07:10:08;19.20;;;7.15;;
33690;SDS011;20026;50.058;18.428;2022-08-26T07:12:34;17.17;;;7.28;;
33690;SDS011;20026;50.058;18.428;2022-08-26T07:15:00;17.73;;;7.55;;
33690;SDS011;20026;50.058;18.428;2022-08-26T07:17:26;16.08;;;6.50;;
33690;SDS011;20026;50.058;18.428;2022-08-26T07:19:53;15.98;;;6.50;;
33690;SDS011;20026;50.058;18.428;2022-08-26T07:22:19;14.27;;;7.28;;
33690;SDS011;20026;50.058;18.428;2022-08-26T07:24:45;19.92;;;6.88;;
33690;SDS011;20026;50.058;18.428;2022-08-26T07:27:12;20.30;;;7.38;;
33690;SDS011;20026;50.058;18.428;2022-08-26T07:29:38;20.45;;;6.35;;
33690;SDS011;20026;50.058;18.428;2022-08-26T07:32:06;12.48;;;5.95;;
33690;SDS011;20026;50.058;18.428;2022-08-26T07:34:33;16.10;;;6.97;;
33690;SDS011;20026;50.058;18.428;2022-08-26T07:36:59;19.80;;;6.35;;
33690;SDS011;20026;50.058;18.428;2022-08-26T07:39:25;13.88;;;6.63;;
33690;SDS011;20026;50.058;18.428;2022-08-26T07:41:51;15.00;;;7.72;;
33690;SDS011;20026;50.058;18.428;2022-08-26T07:44:18;19.33;;;6.88;;
33690;SDS011;20026;50.058;18.428;2022-08-26T07:46:44;10.63;;;6.05;;
33690;SDS011;20026;50.058;18.428;2022-08-26T07:49:09;19.35;;;6.47;;
33690;SDS011;20026;50.058;18.428;2022-08-26T07:51:36;17.35;;;6.38;;
33690;SDS011;20026;50.058;18.428;2022-08-26T07:54:03;18.85;;;6.63;;
33690;SDS011;20026;50.058;18.428;2022-08-26T07:56:29;20.15;;;6.22;;
33690;SDS011;20026;50.058;18.428;2022-08-26T07:58:55;17.35;;;5.95;;
33690;SDS011;20026;50.058;18.428;2022-08-26T08:01:22;15.43;;;6.07;;
33690;SDS011;20026;50.058;18.428;2022-08-26T08:03:49;15.77;;;6.35;;
33690;SDS011;20026;50.058;18.428;2022-08-26T08:06:19;12.02;;;6.65;;
33690;SDS011;20026;50.058;18.428;2022-08-26T08:08:45;13.60;;;6.15;;
33690;SDS011;20026;50.058;18.428;2022-08-26T08:11:11;19.10;;;7.25;;
33690;SDS011;20026;50.058;18.428;2022-08-26T08:13:37;13.57;;;7.22;;
33690;SDS011;20026;50.058;18.428;2022-08-26T08:16:06;15.05;;;6.65;;
33690;SDS011;20026;50.058;18.428;2022-08-26T08:18:32;14.43;;;6.72;;
33690;SDS011;20026;50.058;18.428;2022-08-26T08:20:58;17.63;;;6.63;;
33690;SDS011;20026;50.058;18.428;2022-08-26T08:23:27;17.93;;;5.60;;
33690;SDS011;20026;50.058;18.428;2022-08-26T08:26:07;10.93;;;5.15;;
33690;SDS011;20026;50.058;18.428;2022-08-26T08:28:33;10.82;;;5.18;;
33690;SDS011;20026;50.058;18.428;2022-08-26T08:30:59;12.98;;;5.60;;
33690;SDS011;20026;50.058;18.428;2022-08-26T08:33:26;14.27;;;5.75;;
33690;SDS011;20026;50.058;18.428;2022-08-26T08:35:54;11.43;;;5.45;;
33690;SDS011;20026;50.058;18.428;2022-08-26T08:38:20;10.40;;;5.32;;
33690;SDS011;20026;50.058;18.428;2022-08-26T08:40:46;13.45;;;5.78;;
33690;SDS011;20026;50.058;18.428;2022-08-26T08:43:25;15.93;;;5.70;;
33690;SDS011;20026;50.058;18.428;2022-08-26T08:45:59;15.80;;;5.82;;
33690;SDS011;20026;50.058;18.428;2022-08-26T08:48:35;11.48;;;5.72;;
33690;SDS011;20026;50.058;18.428;2022-08-26T08:51:13;13.35;;;4.78;;
33690;SDS011;20026;50.058;18.428;2022-08-26T08:53:43;15.40;;;5.03;;
33690;SDS011;20026;50.058;18.428;2022-08-26T08:58:42;16.40;;;5.13;;
33690;SDS011;20026;50.058;18.428;2022-08-26T09:01:12;11.10;;;5.07;;
33690;SDS011;20026;50.058;18.428;2022-08-26T09:06:05;19.73;;;5.07;;
33690;SDS011;20026;50.058;18.428;2022-08-26T09:08:41;16.52;;;5.20;;
33690;SDS011;20026;50.058;18.428;2022-08-26T09:11:07;15.00;;;5.40;;
33690;SDS011;20026;50.058;18.428;2022-08-26T09:13:33;13.57;;;5.65;;
33690;SDS011;20026;50.058;18.428;2022-08-26T09:16:10;12.90;;;5.20;;
33690;SDS011;20026;50.058;18.428;2022-08-26T09:23:34;53.10;;;8.48;;
33690;SDS011;20026;50.058;18.428;2022-08-26T09:26:02;15.60;;;6.32;;
33690;SDS011;20026;50.058;18.428;2022-08-26T09:28:29;19.70;;;8.03;;
33690;SDS011;20026;50.058;18.428;2022-08-26T09:33:26;26.92;;;5.80;;
33690;SDS011;20026;50.058;18.428;2022-08-26T09:35:53;17.17;;;5.65;;
33690;SDS011;20026;50.058;18.428;2022-08-26T09:38:35;15.38;;;5.82;;
33690;SDS011;20026;50.058;18.428;2022-08-26T09:41:02;10.52;;;4.70;;
33690;SDS011;20026;50.058;18.428;2022-08-26T09:43:29;12.00;;;4.40;;
33690;SDS011;20026;50.058;18.428;2022-08-26T09:46:16;10.52;;;4.88;;
33690;SDS011;20026;50.058;18.428;2022-08-26T09:48:43;18.77;;;5.37;;
33690;SDS011;20026;50.058;18.428;2022-08-26T09:53:55;16.33;;;4.53;;
33690;SDS011;20026;50.058;18.428;2022-08-26T09:56:32;25.60;;;5.70;;
33690;SDS011;20026;50.058;18.428;2022-08-26T09:58:58;16.50;;;5.20;;
33690;SDS011;20026;50.058;18.428;2022-08-26T10:01:29;20.40;;;4.93;;
33690;SDS011;20026;50.058;18.428;2022-08-26T10:04:03;12.50;;;5.03;;
33690;SDS011;20026;50.058;18.428;2022-08-26T10:06:30;15.18;;;5.00;;
33690;SDS011;20026;50.058;18.428;2022-08-26T10:08:59;11.98;;;4.60;;
33690;SDS011;20026;50.058;18.428;2022-08-26T10:16:22;13.18;;;5.65;;
33690;SDS011;20026;50.058;18.428;2022-08-26T10:18:52;10.38;;;4.93;;
33690;SDS011;20026;50.058;18.428;2022-08-26T10:21:25;17.38;;;5.32;;
33690;SDS011;20026;50.058;18.428;2022-08-26T10:23:54;14.45;;;5.60;;
33690;SDS011;20026;50.058;18.428;2022-08-26T10:26:44;15.43;;;4.97;;
33690;SDS011;20026;50.058;18.428;2022-08-26T10:29:11;13.65;;;5.10;;
33690;SDS011;20026;50.058;18.428;2022-08-26T10:31:40;18.70;;;4.70;;
33690;SDS011;20026;50.058;18.428;2022-08-26T10:34:08;13.32;;;4.55;;
33690;SDS011;20026;50.058;18.428;2022-08-26T10:36:36;13.63;;;4.65;;
33690;SDS011;20026;50.058;18.428;2022-08-26T10:39:28;13.65;;;4.43;;
33690;SDS011;20026;50.058;18.428;2022-08-26T10:41:56;15.15;;;4.75;;
33690;SDS011;20026;50.058;18.428;2022-08-26T10:44:23;14.73;;;4.28;;
33690;SDS011;20026;50.058;18.428;2022-08-26T10:46:52;13.25;;;3.90;;
33690;SDS011;20026;50.058;18.428;2022-08-26T10:49:19;12.85;;;4.03;;
33690;SDS011;20026;50.058;18.428;2022-08-26T10:51:48;11.50;;;3.83;;
33690;SDS011;20026;50.058;18.428;2022-08-26T10:54:21;15.48;;;4.50;;
33690;SDS011;20026;50.058;18.428;2022-08-26T10:57:11;15.07;;;4.10;;
33690;SDS011;20026;50.058;18.428;2022-08-26T11:04:36;7.32;;;3.75;;
33690;SDS011;20026;50.058;18.428;2022-08-26T11:09:49;10.63;;;4.65;;
33690;SDS011;20026;50.058;18.428;2022-08-26T11:15:06;11.05;;;4.25;;
33690;SDS011;20026;50.058;18.428;2022-08-26T11:23:34;11.75;;;4.57;;
33690;SDS011;20026;50.058;18.428;2022-08-26T11:31:08;12.02;;;4.30;;
33690;SDS011;20026;50.058;18.428;2022-08-26T11:33:46;15.32;;;4.45;;
33690;SDS011;20026;50.058;18.428;2022-08-26T11:39:04;18.52;;;4.57;;
33690;SDS011;20026;50.058;18.428;2022-08-26T11:41:38;20.52;;;4.55;;
33690;SDS011;20026;50.058;18.428;2022-08-26T11:44:07;17.88;;;4.10;;
33690;SDS011;20026;50.058;18.428;2022-08-26T11:46:33;14.60;;;4.30;;
33690;SDS011;20026;50.058;18.428;2022-08-26T11:49:02;18.48;;;4.25;;
33690;SDS011;20026;50.058;18.428;2022-08-26T11:51:30;28.08;;;4.88;;
33690;SDS011;20026;50.058;18.428;2022-08-26T11:54:13;14.90;;;3.83;;
33690;SDS011;20026;50.058;18.428;2022-08-26T11:56:40;16.30;;;4.07;;
33690;SDS011;20026;50.058;18.428;2022-08-26T11:59:08;10.45;;;3.85;;
33690;SDS011;20026;50.058;18.428;2022-08-26T12:01:36;16.00;;;3.60;;
33690;SDS011;20026;50.058;18.428;2022-08-26T12:04:03;10.05;;;3.70;;
33690;SDS011;20026;50.058;18.428;2022-08-26T12:06:32;17.05;;;3.85;;
33690;SDS011;20026;50.058;18.428;2022-08-26T12:08:59;7.70;;;3.53;;
33690;SDS011;20026;50.058;18.428;2022-08-26T12:11:29;10.93;;;3.75;;
33690;SDS011;20026;50.058;18.428;2022-08-26T12:13:56;16.25;;;4.00;;
33690;SDS011;20026;50.058;18.428;2022-08-26T12:16:23;10.82;;;3.42;;
33690;SDS011;20026;50.058;18.428;2022-08-26T12:18:49;8.90;;;3.40;;
33690;SDS011;20026;50.058;18.428;2022-08-26T12:21:19;11.48;;;3.03;;
33690;SDS011;20026;50.058;18.428;2022-08-26T12:23:47;13.15;;;3.65;;
33690;SDS011;20026;50.058;18.428;2022-08-26T12:26:22;10.15;;;3.13;;
33690;SDS011;20026;50.058;18.428;2022-08-26T12:28:51;9.63;;;3.70;;
33690;SDS011;20026;50.058;18.428;2022-08-26T12:31:22;8.27;;;3.63;;
33690;SDS011;20026;50.058;18.428;2022-08-26T12:33:49;11.25;;;3.10;;
33690;SDS011;20026;50.058;18.428;2022-08-26T12:36:19;11.88;;;2.95;;
33690;SDS011;20026;50.058;18.428;2022-08-26T12:38:46;7.00;;;3.10;;
33690;SDS011;20026;50.058;18.428;2022-08-26T12:41:35;6.68;;;2.90;;
33690;SDS011;20026;50.058;18.428;2022-08-26T12:43:58;9.77;;;3.22;;
33690;SDS011;20026;50.058;18.428;2022-08-26T12:46:24;11.73;;;3.33;;
33690;SDS011;20026;50.058;18.428;2022-08-26T12:48:52;13.32;;;3.58;;
33690;SDS011;20026;50.058;18.428;2022-08-26T12:51:23;10.00;;;3.55;;
33690;SDS011;20026;50.058;18.428;2022-08-26T12:53:50;11.98;;;3.45;;
33690;SDS011;20026;50.058;18.428;2022-08-26T12:56:26;15.80;;;3.63;;
33690;SDS011;20026;50.058;18.428;2022-08-26T12:59:01;5.95;;;3.03;;
33690;SDS011;20026;50.058;18.428;2022-08-26T13:01:33;11.20;;;3.63;;
33690;SDS011;20026;50.058;18.428;2022-08-26T13:04:01;10.65;;;3.05;;
33690;SDS011;20026;50.058;18.428;2022-08-26T13:06:28;9.70;;;3.15;;
33690;SDS011;20026;50.058;18.428;2022-08-26T13:08:59;8.57;;;3.03;;
33690;SDS011;20026;50.058;18.428;2022-08-26T13:14:04;10.75;;;3.47;;
33690;SDS011;20026;50.058;18.428;2022-08-26T13:16:30;9.80;;;3.30;;
33690;SDS011;20026;50.058;18.428;2022-08-26T13:18:58;12.57;;;3.17;;
33690;SDS011;20026;50.058;18.428;2022-08-26T13:24:13;8.07;;;2.75;;
33690;SDS011;20026;50.058;18.428;2022-08-26T13:26:39;8.57;;;3.10;;
33690;SDS011;20026;50.058;18.428;2022-08-26T13:29:06;7.72;;;3.20;;
33690;SDS011;20026;50.058;18.428;2022-08-26T13:31:33;10.43;;;3.75;;
33690;SDS011;20026;50.058;18.428;2022-08-26T13:34:00;8.25;;;3.13;;
33690;SDS011;20026;50.058;18.428;2022-08-26T13:36:26;12.35;;;3.55;;
33690;SDS011;20026;50.058;18.428;2022-08-26T13:38:52;8.18;;;3.55;;
33690;SDS011;20026;50.058;18.428;2022-08-26T13:41:18;9.80;;;3.40;;
33690;SDS011;20026;50.058;18.428;2022-08-26T13:43:45;7.63;;;3.45;;
33690;SDS011;20026;50.058;18.428;2022-08-26T13:46:10;8.45;;;3.63;;
33690;SDS011;20026;50.058;18.428;2022-08-26T13:48:37;6.72;;;3.40;;
33690;SDS011;20026;50.058;18.428;2022-08-26T13:51:03;4.47;;;3.28;;
33690;SDS011;20026;50.058;18.428;2022-08-26T13:53:29;6.97;;;3.03;;
33690;SDS011;20026;50.058;18.428;2022-08-26T13:56:00;22.17;;;3.72;;
33690;SDS011;20026;50.058;18.428;2022-08-26T13:58:26;10.00;;;3.33;;
33690;SDS011;20026;50.058;18.428;2022-08-26T14:00:53;8.90;;;3.20;;
33690;SDS011;20026;50.058;18.428;2022-08-26T14:03:19;8.35;;;3.05;;
33690;SDS011;20026;50.058;18.428;2022-08-26T14:05:46;12.70;;;3.15;;
33690;SDS011;20026;50.058;18.428;2022-08-26T14:08:11;12.63;;;3.42;;
33690;SDS011;20026;50.058;18.428;2022-08-26T14:10:38;10.23;;;3.63;;
33690;SDS011;20026;50.058;18.428;2022-08-26T14:13:03;11.10;;;4.05;;
33690;SDS011;20026;50.058;18.428;2022-08-26T14:15:33;8.05;;;3.22;;
33690;SDS011;20026;50.058;18.428;2022-08-26T14:18:03;11.07;;;3.70;;
33690;SDS011;20026;50.058;18.428;2022-08-26T14:20:30;11.00;;;3.80;;
33690;SDS011;20026;50.058;18.428;2022-08-26T14:22:56;9.13;;;3.60;;
33690;SDS011;20026;50.058;18.428;2022-08-26T14:25:22;7.43;;;3.28;;
33690;SDS011;20026;50.058;18.428;2022-08-26T14:27:49;14.75;;;3.30;;
33690;SDS011;20026;50.058;18.428;2022-08-26T14:30:15;11.52;;;3.22;;
33690;SDS011;20026;50.058;18.428;2022-08-26T14:32:43;6.75;;;3.50;;
33690;SDS011;20026;50.058;18.428;2022-08-26T14:35:15;12.57;;;3.30;;
33690;SDS011;20026;50.058;18.428;2022-08-26T14:37:41;12.10;;;3.55;;
33690;SDS011;20026;50.058;18.428;2022-08-26T14:40:07;8.68;;;3.63;;
33690;SDS011;20026;50.058;18.428;2022-08-26T14:42:34;10.07;;;3.80;;
33690;SDS011;20026;50.058;18.428;2022-08-26T14:45:03;11.90;;;3.88;;
33690;SDS011;20026;50.058;18.428;2022-08-26T14:47:29;9.80;;;4.22;;
33690;SDS011;20026;50.058;18.428;2022-08-26T14:49:55;13.18;;;3.72;;
33690;SDS011;20026;50.058;18.428;2022-08-26T14:52:21;7.18;;;3.95;;
33690;SDS011;20026;50.058;18.428;2022-08-26T14:54:47;12.05;;;3.65;;
33690;SDS011;20026;50.058;18.428;2022-08-26T14:57:13;12.48;;;4.13;;
33690;SDS011;20026;50.058;18.428;2022-08-26T14:59:41;11.07;;;4.47;;
33690;SDS011;20026;50.058;18.428;2022-08-26T15:02:07;9.02;;;4.18;;
33690;SDS011;20026;50.058;18.428;2022-08-26T15:04:34;9.75;;;3.78;;
33690;SDS011;20026;50.058;18.428;2022-08-26T15:07:00;12.57;;;4.00;;
33690;SDS011;20026;50.058;18.428;2022-08-26T15:09:27;17.15;;;4.97;;
33690;SDS011;20026;50.058;18.428;2022-08-26T15:11:53;12.65;;;4.50;;
33690;SDS011;20026;50.058;18.428;2022-08-26T15:14:20;10.40;;;3.75;;